CYKG

Kangiqsujuaq (Wakeham Bay) Airport

ICAO Code CYKG
IATA Code
Name Kangiqsujuaq (Wakeham Bay) Airport
Location Kangiqsujuaq, Quebec, CA
Elevation 517 Feet / 157.6 Meters
Latitude 61.58861111
Longitude -71.92944444
METAR CYKG 182100Z 00000KT 8SM -RA FEW002 FEW008 BKN012 OVC018 13/13 A2978 RMK ST1ST2ST4SC2 ST TR LAST STFD OBS/NXT OBS 191200 UTC SLP093 DENSITY ALT 600FT
Extra information Display NOTAMS
Display Charts
Runway Length Width Surface Elevation
15 3520 ft 100 ft GRAVEL 517 ft
33 3520 ft 100 ft GRAVEL 478 ft